createdAt,value
2019-01-18T00:02:16.294Z,1.00
2019-01-18T00:04:43.558Z,0.90
2019-01-18T00:07:10.789Z,0.80
2019-01-18T00:09:38.048Z,0.80
2019-01-18T00:12:05.289Z,0.70
2019-01-18T00:14:32.544Z,0.70
2019-01-18T00:17:00.097Z,0.60
2019-01-18T00:19:27.352Z,0.60
2019-01-18T00:21:54.593Z,0.50
2019-01-18T00:24:22.180Z,0.40
2019-01-18T00:26:49.421Z,0.30
2019-01-18T00:29:16.721Z,0.20
2019-01-18T00:31:44.320Z,0.20
2019-01-18T00:34:11.585Z,0.30
2019-01-18T00:36:39.132Z,0.40
2019-01-18T00:39:07.496Z,0.30
2019-01-18T00:41:35.068Z,0.30
2019-01-18T00:44:02.674Z,0.30
2019-01-18T00:46:29.909Z,0.40
2019-01-18T00:48:57.168Z,0.50
2019-01-18T00:51:24.689Z,0.60
2019-01-18T00:53:51.953Z,0.60
2019-01-18T00:56:19.209Z,0.70
2019-01-18T00:58:46.461Z,0.70
2019-01-18T01:01:14.004Z,0.60
2019-01-18T01:03:41.288Z,0.50
2019-01-18T01:06:08.520Z,0.40
2019-01-18T01:08:36.092Z,0.40
2019-01-18T01:11:03.334Z,0.30
2019-01-18T01:13:30.560Z,0.20
2019-01-18T01:15:57.821Z,0.20
2019-01-18T01:18:25.052Z,0.20
2019-01-18T01:20:52.312Z,0.20
2019-01-18T01:23:19.591Z,0.20
2019-01-18T01:25:46.936Z,0.20
2019-01-18T01:28:14.174Z,0.20
2019-01-18T01:30:42.528Z,0.20
2019-01-18T01:33:09.769Z,0.10
2019-01-18T01:35:37.033Z,0.10
2019-01-18T01:38:04.648Z,0.10
2019-01-18T01:40:31.908Z,0.10
2019-01-18T01:42:59.132Z,0.00
2019-01-18T01:45:26.685Z,0.10
2019-01-18T01:47:53.937Z,0.10
2019-01-18T01:50:23.017Z,0.10
2019-01-18T01:52:50.343Z,0.10
2019-01-18T01:55:17.739Z,0.00
2019-01-18T01:57:45.695Z,0.00
2019-01-18T02:00:15.601Z,0.00
2019-01-18T02:02:43.477Z,0.00
2019-01-18T02:05:11.052Z,-0.10
2019-01-18T02:07:38.288Z,-0.20
2019-01-18T02:10:06.954Z,-0.10
2019-01-18T02:12:34.184Z,-0.10
2019-01-18T02:15:01.798Z,-0.20
2019-01-18T02:17:29.355Z,-0.20
2019-01-18T02:19:56.609Z,-0.20
2019-01-18T02:22:23.848Z,-0.10
2019-01-18T02:24:51.101Z,-0.20
2019-01-18T02:27:18.324Z,-0.20
2019-01-18T02:29:45.581Z,-0.20
2019-01-18T02:32:12.818Z,0.00
2019-01-18T02:34:40.425Z,0.20
2019-01-18T02:37:07.685Z,0.20
2019-01-18T02:39:34.940Z,0.40
2019-01-18T02:42:02.174Z,0.30
2019-01-18T02:44:29.531Z,0.40
2019-01-18T02:46:56.756Z,0.40
2019-01-18T02:49:23.995Z,0.40
2019-01-18T02:51:51.253Z,0.40
2019-01-18T02:54:18.480Z,0.40
2019-01-18T02:56:46.120Z,0.40
2019-01-18T02:59:13.353Z,0.50
2019-01-18T03:01:40.908Z,0.50
2019-01-18T03:04:08.473Z,0.50
2019-01-18T03:06:35.733Z,0.40
2019-01-18T03:09:05.984Z,0.40
2019-01-18T03:11:33.500Z,0.30
2019-01-18T03:14:00.740Z,0.30
2019-01-18T03:16:28.010Z,0.40
2019-01-18T03:18:55.433Z,0.40
2019-01-18T03:21:23.081Z,0.50
2019-01-18T03:23:50.578Z,0.40
2019-01-18T03:26:18.261Z,0.30
2019-01-18T03:28:45.583Z,0.40
2019-01-18T03:31:13.174Z,0.40
2019-01-18T03:33:40.509Z,0.50
2019-01-18T03:36:07.780Z,0.50
2019-01-18T03:38:35.128Z,0.50
2019-01-18T03:41:02.893Z,0.50
2019-01-18T03:43:30.155Z,0.50
2019-01-18T03:45:57.481Z,0.40
2019-01-18T03:48:24.809Z,0.20
2019-01-18T03:50:52.396Z,0.10
2019-01-18T03:53:19.957Z,0.10
2019-01-18T03:55:47.213Z,0.10
2019-01-18T03:58:14.873Z,0.10
2019-01-18T04:00:42.130Z,0.00
2019-01-18T04:03:09.365Z,0.00
2019-01-18T04:05:36.624Z,0.00
2019-01-18T04:08:03.857Z,-0.10
2019-01-18T04:10:31.094Z,-0.10
2019-01-18T04:12:58.450Z,-0.20
2019-01-18T04:15:26.372Z,-0.30
2019-01-18T04:17:53.641Z,-0.30
2019-01-18T04:20:21.726Z,-0.20
2019-01-18T04:22:49.481Z,-0.30
2019-01-18T04:25:19.701Z,-0.40
2019-01-18T04:27:46.957Z,-0.50
2019-01-18T04:30:15.762Z,-0.40
2019-01-18T04:32:43.023Z,-0.50
2019-01-18T04:35:11.072Z,-0.50
2019-01-18T04:37:38.440Z,-0.50
2019-01-18T04:40:08.948Z,-0.50
2019-01-18T04:42:36.564Z,-0.50
2019-01-18T04:45:04.599Z,-0.60
2019-01-18T04:47:31.853Z,-0.60
2019-01-18T04:49:59.085Z,-0.70
2019-01-18T04:52:28.091Z,-0.70
2019-01-18T04:54:55.535Z,-0.70
2019-01-18T04:57:22.796Z,-0.70
2019-01-18T04:59:50.045Z,-0.70
2019-01-18T05:02:37.057Z,-0.80
2019-01-18T05:05:04.832Z,-0.80
2019-01-18T05:07:32.853Z,-0.90
2019-01-18T05:10:00.113Z,-1.10
2019-01-18T05:12:27.549Z,-1.20
2019-01-18T05:14:55.100Z,-1.20
2019-01-18T05:17:22.660Z,-1.20
2019-01-18T05:19:49.893Z,-1.10
2019-01-18T05:22:17.155Z,-0.80
2019-01-18T05:24:49.283Z,-0.70
2019-01-18T05:27:13.548Z,-0.60
2019-01-18T05:29:40.777Z,-0.40
2019-01-18T05:32:08.328Z,-0.30
2019-01-18T05:34:35.657Z,-0.30
2019-01-18T05:37:03.237Z,-0.30
2019-01-18T05:39:30.473Z,-0.30
2019-01-18T05:41:57.724Z,-0.20
2019-01-18T05:44:24.962Z,-0.10
2019-01-18T05:46:52.447Z,0.00
2019-01-18T05:49:19.705Z,0.10
2019-01-18T05:51:47.258Z,0.10
2019-01-18T05:54:14.818Z,0.20
2019-01-18T05:56:42.045Z,0.20
2019-01-18T05:59:09.629Z,0.30
2019-01-18T06:01:36.934Z,0.30
2019-01-18T06:04:04.233Z,0.30
2019-01-18T06:06:31.470Z,0.30
2019-01-18T06:08:59.046Z,0.20
2019-01-18T06:11:26.605Z,0.20
2019-01-18T06:13:54.161Z,0.30
2019-01-18T06:16:22.029Z,0.30
2019-01-18T06:18:49.284Z,0.30
2019-01-18T06:21:16.524Z,0.30
2019-01-18T06:23:44.444Z,0.20
2019-01-18T06:26:12.064Z,0.20
2019-01-18T06:28:39.479Z,0.10
2019-01-18T06:31:06.961Z,0.10
2019-01-18T06:33:34.316Z,0.10
2019-01-18T06:36:02.193Z,-0.10
2019-01-18T06:38:29.869Z,-0.20
2019-01-18T06:41:03.441Z,-0.20
2019-01-18T06:43:30.698Z,-0.30
2019-01-18T06:45:58.128Z,-0.10
2019-01-18T06:48:27.230Z,-0.10
2019-01-18T06:50:54.469Z,0.00
2019-01-18T06:53:22.123Z,0.00
2019-01-18T06:55:49.369Z,0.00
2019-01-18T06:58:16.619Z,0.00
2019-01-18T07:00:44.134Z,0.00
2019-01-18T07:03:11.394Z,0.00
2019-01-18T07:05:38.939Z,0.10
2019-01-18T07:08:06.508Z,0.00
2019-01-18T07:10:33.742Z,0.00
2019-01-18T07:13:01.455Z,-0.20
2019-01-18T07:15:28.683Z,-0.20
2019-01-18T07:17:56.369Z,-0.10
2019-01-18T07:20:23.604Z,0.00
2019-01-18T07:22:50.865Z,-0.10
2019-01-18T07:25:21.166Z,-0.20
2019-01-18T07:27:48.713Z,-0.30
2019-01-18T07:30:21.455Z,-0.40
2019-01-18T07:32:48.713Z,-0.40
2019-01-18T07:35:16.401Z,-0.30
2019-01-18T07:37:43.657Z,-0.20
2019-01-18T07:40:11.352Z,-0.10
2019-01-18T07:42:38.681Z,-0.10
2019-01-18T07:45:10.361Z,-0.10
2019-01-18T07:47:37.597Z,-0.20
2019-01-18T07:50:05.241Z,-0.20
2019-01-18T07:52:32.474Z,-0.20
2019-01-18T07:55:00.085Z,0.00
2019-01-18T07:57:27.718Z,0.20
2019-01-18T07:59:54.978Z,0.30
2019-01-18T08:02:22.215Z,0.40
2019-01-18T08:04:49.897Z,0.50
2019-01-18T08:07:17.132Z,0.40
2019-01-18T08:09:44.402Z,0.40
2019-01-18T08:12:11.650Z,0.40
2019-01-18T08:14:39.084Z,0.40
2019-01-18T08:17:06.652Z,0.20
2019-01-18T08:19:33.936Z,0.30
2019-01-18T08:22:01.173Z,0.40
2019-01-18T08:24:28.433Z,0.50
2019-01-18T08:26:55.925Z,0.70
2019-01-18T08:29:23.178Z,0.80
2019-01-18T08:31:50.412Z,0.90
2019-01-18T08:34:17.682Z,1.10
2019-01-18T08:36:45.009Z,1.30
2019-01-18T08:39:12.661Z,1.50
2019-01-18T08:41:39.906Z,1.50
2019-01-18T08:44:07.166Z,1.60
2019-01-18T08:46:34.648Z,1.80
2019-01-18T08:49:02.253Z,1.90
2019-01-18T08:51:29.494Z,1.80
2019-01-18T08:53:56.761Z,1.80
2019-01-18T08:56:23.992Z,1.40
2019-01-18T08:58:51.258Z,1.20
2019-01-18T09:01:18.489Z,0.90
2019-01-18T09:03:46.074Z,0.90
2019-01-18T09:06:13.304Z,0.90
2019-01-18T09:08:40.885Z,0.90
2019-01-18T09:11:08.131Z,0.90
2019-01-18T09:13:36.210Z,1.00
2019-01-18T09:16:03.765Z,0.80
2019-01-18T09:18:31.012Z,0.70
2019-01-18T09:20:58.364Z,0.80
2019-01-18T09:23:25.605Z,1.10
2019-01-18T09:25:53.186Z,1.00
2019-01-18T09:28:20.425Z,1.00
2019-01-18T09:30:47.681Z,1.00
2019-01-18T09:33:14.936Z,1.00
2019-01-18T09:35:42.609Z,1.00
2019-01-18T09:38:17.577Z,1.10
2019-01-18T09:40:41.216Z,1.40
2019-01-18T09:43:08.481Z,2.50
2019-01-18T09:45:35.737Z,3.20
2019-01-18T09:48:03.379Z,3.30
2019-01-18T09:50:31.613Z,3.40
2019-01-18T09:52:59.252Z,3.70
2019-01-18T09:55:26.518Z,4.40
2019-01-18T09:57:53.792Z,5.00
2019-01-18T10:00:29.441Z,5.50
2019-01-18T10:02:57.486Z,6.00
2019-01-18T10:05:25.081Z,6.50
2019-01-18T10:07:52.656Z,6.70
2019-01-18T10:10:20.024Z,6.80
2019-01-18T10:12:47.967Z,7.00
2019-01-18T10:15:20.521Z,7.20
2019-01-18T10:17:47.760Z,7.30
2019-01-18T10:20:15.812Z,7.10
2019-01-18T10:22:44.550Z,6.00
2019-01-18T10:25:12.740Z,4.60
2019-01-18T10:27:39.861Z,3.60
2019-01-18T10:30:11.734Z,3.00
2019-01-18T10:32:38.962Z,2.50
2019-01-18T10:35:06.333Z,2.30
2019-01-18T10:37:33.569Z,2.10
2019-01-18T10:40:00.849Z,1.90
2019-01-18T10:42:28.397Z,1.80
2019-01-18T10:44:56.507Z,1.70
2019-01-18T10:47:24.153Z,1.70
2019-01-18T10:49:51.412Z,1.70
2019-01-18T10:52:18.946Z,1.70
2019-01-18T10:54:46.204Z,1.70
2019-01-18T10:57:13.550Z,1.70
2019-01-18T10:59:40.813Z,1.70
2019-01-18T11:02:08.048Z,1.70
2019-01-18T11:04:35.609Z,1.70
2019-01-18T11:07:02.849Z,1.60
2019-01-18T11:09:30.420Z,1.60
2019-01-18T11:11:57.661Z,1.60
2019-01-18T11:14:25.238Z,1.60
2019-01-18T11:16:52.488Z,1.60
2019-01-18T11:19:20.044Z,1.50
2019-01-18T11:21:47.413Z,1.50
2019-01-18T11:24:14.872Z,1.60
2019-01-18T11:26:42.128Z,1.50
2019-01-18T11:29:09.670Z,1.50
2019-01-18T11:31:37.353Z,1.50
2019-01-18T11:34:04.986Z,1.50
2019-01-18T11:36:32.250Z,1.50
2019-01-18T11:38:59.796Z,1.50
2019-01-18T11:41:27.460Z,1.50
2019-01-18T11:43:54.695Z,1.50
2019-01-18T11:46:21.974Z,1.50
2019-01-18T11:48:50.476Z,1.50
2019-01-18T11:51:18.310Z,1.50
2019-01-18T11:53:45.544Z,1.60
2019-01-18T11:56:12.823Z,1.60
2019-01-18T11:58:40.480Z,2.10
2019-01-18T12:01:07.750Z,2.30
2019-01-18T12:03:34.994Z,2.60
2019-01-18T12:06:02.280Z,4.30
2019-01-18T12:08:29.516Z,5.10
2019-01-18T12:10:56.861Z,4.40
2019-01-18T12:13:24.099Z,3.50
2019-01-18T12:15:51.436Z,3.20
2019-01-18T12:18:18.675Z,3.30
2019-01-18T12:20:46.034Z,3.40
2019-01-18T12:23:13.366Z,3.60
2019-01-18T12:25:40.965Z,3.90
2019-01-18T12:28:08.520Z,4.30
2019-01-18T12:30:36.383Z,4.40
2019-01-18T12:33:04.057Z,4.40
2019-01-18T12:35:31.322Z,4.60
2019-01-18T12:37:58.862Z,4.60
2019-01-18T12:40:26.132Z,4.60
2019-01-18T12:42:53.791Z,4.50
2019-01-18T12:45:21.841Z,4.30
2019-01-18T12:47:49.417Z,4.20
2019-01-18T12:50:19.730Z,4.10
2019-01-18T12:52:46.964Z,3.90
2019-01-18T12:55:14.292Z,3.80
2019-01-18T12:57:41.585Z,3.70
2019-01-18T13:00:12.581Z,3.80
2019-01-18T13:02:39.845Z,3.80
2019-01-18T13:05:10.924Z,3.90
2019-01-18T13:07:38.184Z,3.80
2019-01-18T13:10:11.817Z,4.00
2019-01-18T13:12:35.950Z,3.90
2019-01-18T13:15:06.020Z,4.00
2019-01-18T13:17:33.630Z,3.90
2019-01-18T13:20:00.865Z,3.90
2019-01-18T13:22:28.125Z,4.00
2019-01-18T13:24:55.698Z,3.90
2019-01-18T13:27:22.969Z,4.00
2019-01-18T13:29:50.712Z,4.10
2019-01-18T13:32:18.000Z,4.00
2019-01-18T13:34:45.517Z,3.90
2019-01-18T13:37:13.292Z,3.80
2019-01-18T13:39:40.838Z,3.80
2019-01-18T13:42:08.121Z,3.60
2019-01-18T13:44:35.353Z,3.70
2019-01-18T13:47:02.636Z,3.90
2019-01-18T13:49:30.168Z,4.10
2019-01-18T13:51:57.816Z,4.10
2019-01-18T13:54:25.112Z,4.20
2019-01-18T13:56:52.833Z,4.30
2019-01-18T13:59:20.389Z,4.20
2019-01-18T14:01:47.859Z,3.80
2019-01-18T14:04:15.101Z,3.50
2019-01-18T14:06:42.381Z,3.50
2019-01-18T14:09:09.909Z,3.70
2019-01-18T14:11:37.465Z,3.80
2019-01-18T14:14:05.130Z,3.70
2019-01-18T14:16:32.685Z,3.80
2019-01-18T14:19:00.244Z,3.80
2019-01-18T14:21:27.804Z,3.80
2019-01-18T14:23:55.046Z,3.70
2019-01-18T14:26:22.292Z,3.60
2019-01-18T14:28:49.922Z,3.50
2019-01-18T14:31:17.529Z,3.30
2019-01-18T14:33:45.084Z,3.40
2019-01-18T14:36:14.604Z,3.50
2019-01-18T14:38:41.882Z,3.50
2019-01-18T14:41:09.117Z,3.30
2019-01-18T14:43:36.653Z,3.30
2019-01-18T14:46:03.895Z,3.20
2019-01-18T14:48:31.185Z,3.20
2019-01-18T14:50:58.504Z,3.10
2019-01-18T14:53:25.787Z,3.00
2019-01-18T14:55:53.325Z,2.90
2019-01-18T14:58:24.569Z,2.90
2019-01-18T15:00:50.180Z,2.70
2019-01-18T15:03:17.741Z,2.60
2019-01-18T15:05:44.977Z,2.50
2019-01-18T15:08:12.250Z,2.40
2019-01-18T15:10:39.589Z,2.30
2019-01-18T15:13:12.573Z,2.40
2019-01-18T15:15:39.812Z,2.30
2019-01-18T15:18:07.378Z,2.20
2019-01-18T15:20:34.717Z,2.10
2019-01-18T15:23:02.009Z,1.90
2019-01-18T15:25:29.248Z,1.70
2019-01-18T15:27:56.628Z,1.60
2019-01-18T15:30:26.144Z,1.60
2019-01-18T15:32:53.913Z,1.50
2019-01-18T15:35:24.096Z,1.50
2019-01-18T15:37:51.963Z,1.40
2019-01-18T15:40:21.777Z,1.40
2019-01-18T15:42:49.445Z,1.30
2019-01-18T15:45:16.997Z,1.20
2019-01-18T15:47:44.277Z,1.30
2019-01-18T15:50:15.009Z,1.20
2019-01-18T15:52:42.246Z,1.20
2019-01-18T15:55:10.257Z,1.10
2019-01-18T15:57:37.500Z,1.00
2019-01-18T16:00:08.410Z,0.90
2019-01-18T16:02:35.648Z,0.80
2019-01-18T16:05:03.723Z,0.60
2019-01-18T16:07:31.081Z,0.60
2019-01-18T16:09:58.373Z,0.50
2019-01-18T16:12:25.604Z,0.40
2019-01-18T16:14:52.888Z,0.30
2019-01-18T16:17:24.125Z,0.20
2019-01-18T16:19:51.453Z,0.20
2019-01-18T16:22:18.981Z,0.30
2019-01-18T16:24:46.345Z,0.30
2019-01-18T16:27:13.675Z,0.30
2019-01-18T16:29:41.112Z,0.20
2019-01-18T16:32:08.705Z,0.10
2019-01-18T16:34:36.013Z,0.00
2019-01-18T16:37:03.242Z,0.00
2019-01-18T16:39:30.809Z,0.00
2019-01-18T16:41:58.049Z,0.00
2019-01-18T16:44:25.325Z,-0.10
2019-01-18T16:46:52.838Z,-0.10
2019-01-18T16:49:20.212Z,-0.20
2019-01-18T16:51:47.449Z,-0.20
2019-01-18T16:54:15.131Z,-0.20
2019-01-18T16:56:42.762Z,-0.30
2019-01-18T16:59:10.054Z,-0.30
2019-01-18T17:01:37.582Z,-0.40
2019-01-18T17:04:04.889Z,-0.60
2019-01-18T17:06:32.125Z,-0.70
2019-01-18T17:08:59.844Z,-0.70
2019-01-18T17:11:27.256Z,-0.80
2019-01-18T17:13:54.549Z,-0.80
2019-01-18T17:16:21.792Z,-0.90
2019-01-18T17:18:49.081Z,-0.90
2019-01-18T17:21:16.324Z,-0.90
2019-01-18T17:23:43.704Z,-0.80
2019-01-18T17:26:10.941Z,-0.80
2019-01-18T17:28:38.680Z,-0.70
2019-01-18T17:31:06.228Z,-0.70
2019-01-18T17:33:37.001Z,-0.70
2019-01-18T17:36:23.269Z,-0.70
2019-01-18T17:39:30.245Z,-0.70
2019-01-18T17:42:44.810Z,-0.60
2019-01-18T17:46:00.010Z,-0.60
2019-01-18T17:49:09.284Z,-0.60
2019-01-18T17:52:21.139Z,-0.50
2019-01-18T17:54:58.920Z,-0.60
2019-01-18T17:58:07.870Z,-0.70
2019-01-18T18:01:10.538Z,-0.70
2019-01-18T18:04:38.297Z,-0.70
2019-01-18T18:07:56.953Z,-0.60
2019-01-18T18:11:18.302Z,-0.90
2019-01-18T18:14:23.409Z,-0.90
2019-01-18T18:17:12.028Z,-0.90
2019-01-18T18:20:17.433Z,-0.80
2019-01-18T18:23:29.611Z,-0.80
2019-01-18T18:26:56.697Z,-0.80
2019-01-18T18:30:02.837Z,-0.80
2019-01-18T18:33:06.635Z,-0.90
2019-01-18T18:35:59.909Z,-0.90
2019-01-18T18:39:10.997Z,-1.00
2019-01-18T18:42:28.087Z,-1.10
2019-01-18T18:45:28.368Z,-1.10
2019-01-18T18:48:06.425Z,-1.20
2019-01-18T18:51:24.305Z,-1.30
2019-01-18T18:54:09.923Z,-1.30
2019-01-18T18:57:24.222Z,-1.40
2019-01-18T19:00:28.460Z,-1.40
2019-01-18T19:03:32.805Z,-1.40
2019-01-18T19:06:27.823Z,-1.50
2019-01-18T19:09:28.701Z,-1.50
2019-01-18T19:12:28.404Z,-1.50
2019-01-18T19:15:31.085Z,-1.50
2019-01-18T19:18:58.800Z,-1.50
2019-01-18T19:22:02.986Z,-1.50
2019-01-18T19:24:50.522Z,-1.50
2019-01-18T19:27:59.738Z,-1.50
2019-01-18T19:30:53.745Z,-1.70
2019-01-18T19:33:47.877Z,-1.70
2019-01-18T19:37:05.514Z,-1.60
2019-01-18T19:39:48.837Z,-1.60
2019-01-18T19:42:28.809Z,-1.70
2019-01-18T19:45:25.924Z,-1.60
2019-01-18T19:48:41.265Z,-1.60
2019-01-18T19:51:45.000Z,-1.60
2019-01-18T19:54:28.837Z,-1.60
2019-01-18T19:57:24.776Z,-1.60
2019-01-18T20:00:28.318Z,-1.60
2019-01-18T20:03:14.730Z,-1.60
2019-01-18T20:06:20.058Z,-1.60
2019-01-18T20:09:11.689Z,-1.50
2019-01-18T20:12:21.380Z,-1.50
2019-01-18T20:15:31.362Z,-1.60
2019-01-18T20:18:29.063Z,-1.60
2019-01-18T20:21:34.598Z,-1.60
2019-01-18T20:24:29.504Z,-1.50
2019-01-18T20:27:21.125Z,-1.60
2019-01-18T20:30:29.768Z,-1.70
2019-01-18T20:33:22.523Z,-1.60
2019-01-18T20:36:23.035Z,-1.70
2019-01-18T20:39:20.517Z,-1.80
2019-01-18T20:42:24.156Z,-1.80
2019-01-18T20:45:17.321Z,-1.90
2019-01-18T20:48:24.792Z,-1.90
2019-01-18T20:51:14.068Z,-2.00
2019-01-18T20:54:12.376Z,-2.00
2019-01-18T20:57:19.362Z,-1.90
2019-01-18T21:00:16.093Z,-1.90
2019-01-18T21:03:28.961Z,-1.50
2019-01-18T21:06:40.837Z,-1.80
2019-01-18T21:09:54.655Z,-1.80
2019-01-18T21:12:44.757Z,-2.00
2019-01-18T21:15:54.123Z,-2.00
2019-01-18T21:19:18.491Z,-2.10
2019-01-18T21:22:04.441Z,-2.00
2019-01-18T21:25:01.245Z,-2.10
2019-01-18T21:28:19.363Z,-2.10
2019-01-18T21:31:20.391Z,-2.20
2019-01-18T21:34:15.850Z,-2.20
2019-01-18T21:37:07.989Z,-2.20
2019-01-18T21:40:26.954Z,-2.20
2019-01-18T21:43:30.928Z,-2.30
2019-01-18T21:46:38.153Z,-2.40
2019-01-18T21:49:36.681Z,-2.40
2019-01-18T21:52:31.088Z,-2.30
2019-01-18T21:55:17.756Z,-2.40
2019-01-18T21:58:02.669Z,-2.40
2019-01-18T22:01:05.089Z,-2.30
2019-01-18T22:04:00.144Z,-2.40
2019-01-18T22:07:08.348Z,-2.30
2019-01-18T22:09:48.517Z,-2.20
2019-01-18T22:12:51.984Z,-2.20
2019-01-18T22:16:16.120Z,-2.20
2019-01-18T22:19:34.304Z,-2.30
2019-01-18T22:22:58.828Z,-2.30
2019-01-18T22:26:03.760Z,-2.40
2019-01-18T22:29:23.117Z,-2.50
2019-01-18T22:32:18.785Z,-2.50
2019-01-18T22:35:24.257Z,-2.50
2019-01-18T22:38:16.109Z,-2.50
2019-01-18T22:41:26.108Z,-2.50
2019-01-18T22:44:21.758Z,-2.60
2019-01-18T22:47:31.390Z,-2.70
2019-01-18T22:50:17.645Z,-2.70
2019-01-18T22:53:39.013Z,-2.60
2019-01-18T22:56:54.507Z,-2.60
2019-01-18T22:59:48.857Z,-2.60
2019-01-18T23:02:30.226Z,-2.70
2019-01-18T23:05:25.402Z,-2.70
2019-01-18T23:08:56.382Z,-2.70
2019-01-18T23:11:39.354Z,-2.70
2019-01-18T23:14:44.272Z,-2.80
2019-01-18T23:17:50.824Z,-2.70
2019-01-18T23:21:07.117Z,-2.80
2019-01-18T23:23:55.229Z,-2.80
2019-01-18T23:27:09.344Z,-2.80
2019-01-18T23:29:47.376Z,-3.00
2019-01-18T23:32:55.253Z,-3.00
2019-01-18T23:35:48.574Z,-3.10
2019-01-18T23:38:53.825Z,-3.00
2019-01-18T23:41:35.488Z,-3.00
2019-01-18T23:44:56.808Z,-3.10
2019-01-18T23:47:35.537Z,-3.20
2019-01-18T23:50:40.269Z,-3.20
2019-01-18T23:53:33.149Z,-3.20
2019-01-18T23:56:30.845Z,-3.10
2019-01-18T23:59:12.796Z,-3.10
